createdAt,value
2019-01-12T00:01:19.806Z,0.80
2019-01-12T00:03:48.718Z,0.90
2019-01-12T00:06:17.669Z,0.90
2019-01-12T00:08:46.556Z,1.00
2019-01-12T00:11:16.034Z,1.00
2019-01-12T00:13:45.236Z,1.00
2019-01-12T00:16:14.485Z,1.00
2019-01-12T00:18:43.613Z,1.00
2019-01-12T00:21:14.528Z,1.00
2019-01-12T00:23:43.996Z,1.00
2019-01-12T00:26:12.841Z,1.10
2019-01-12T00:28:42.093Z,1.10
2019-01-12T00:31:10.992Z,1.10
2019-01-12T00:33:39.964Z,1.10
2019-01-12T00:36:08.775Z,1.10
2019-01-12T00:38:37.825Z,1.10
2019-01-12T00:41:06.925Z,1.20
2019-01-12T00:43:35.741Z,1.20
2019-01-12T00:46:04.700Z,1.20
2019-01-12T00:48:33.597Z,1.20
2019-01-12T00:51:02.465Z,1.20
2019-01-12T00:53:31.340Z,1.20
2019-01-12T00:56:00.681Z,1.20
2019-01-12T00:58:29.540Z,1.20
2019-01-12T01:00:58.659Z,1.20
2019-01-12T01:03:27.536Z,1.30
2019-01-12T01:05:56.421Z,1.30
2019-01-12T01:08:25.208Z,1.30
2019-01-12T01:10:54.072Z,1.30
2019-01-12T01:13:23.008Z,1.30
2019-01-12T01:15:51.964Z,1.30
2019-01-12T01:18:20.774Z,1.30
2019-01-12T01:20:49.733Z,1.30
2019-01-12T01:23:18.617Z,1.30
2019-01-12T01:25:47.408Z,1.40
2019-01-12T01:28:16.217Z,1.30
2019-01-12T01:30:45.374Z,1.30
2019-01-12T01:33:14.237Z,1.40
2019-01-12T01:35:43.029Z,1.40
2019-01-12T01:38:11.894Z,1.40
2019-01-12T01:40:40.698Z,1.40
2019-01-12T01:43:09.507Z,1.40
2019-01-12T01:45:38.461Z,1.30
2019-01-12T01:48:07.679Z,1.40
2019-01-12T01:50:36.560Z,1.40
2019-01-12T01:53:05.546Z,1.30
2019-01-12T01:55:34.348Z,1.40
2019-01-12T01:58:03.294Z,1.40
2019-01-12T02:00:32.161Z,1.40
2019-01-12T02:03:00.976Z,1.40
2019-01-12T02:05:29.798Z,1.40
2019-01-12T02:07:58.684Z,1.40
2019-01-12T02:10:27.585Z,1.40
2019-01-12T02:12:56.373Z,1.40
2019-01-12T02:15:25.345Z,1.40
2019-01-12T02:17:54.237Z,1.40
2019-01-12T02:20:23.255Z,1.40
2019-01-12T02:22:52.331Z,1.40
2019-01-12T02:25:21.206Z,1.40
2019-01-12T02:27:50.081Z,1.40
2019-01-12T02:30:21.980Z,1.40
2019-01-12T02:32:50.772Z,1.40
2019-01-12T02:35:19.954Z,1.40
2019-01-12T02:37:48.835Z,1.50
2019-01-12T02:40:17.636Z,1.40
2019-01-12T02:42:46.443Z,1.40
2019-01-12T02:45:15.548Z,1.40
2019-01-12T02:47:44.420Z,1.50
2019-01-12T02:50:13.898Z,1.50
2019-01-12T02:52:42.773Z,1.50
2019-01-12T02:55:11.982Z,1.50
2019-01-12T02:57:40.854Z,1.50
2019-01-12T03:00:15.872Z,1.50
2019-01-12T03:02:44.907Z,1.50
2019-01-12T03:05:14.453Z,1.50
2019-01-12T03:07:43.647Z,1.50
2019-01-12T03:10:14.142Z,1.50
2019-01-12T03:12:43.008Z,1.50
2019-01-12T03:15:13.974Z,1.50
2019-01-12T03:17:43.228Z,1.50
2019-01-12T03:20:13.903Z,1.50
2019-01-12T03:22:42.832Z,1.50
2019-01-12T03:25:17.527Z,1.50
2019-01-12T03:27:42.835Z,1.50
2019-01-12T03:30:14.603Z,1.60
2019-01-12T03:32:45.761Z,1.60
2019-01-12T03:35:15.318Z,1.60
2019-01-12T03:37:44.123Z,1.60
2019-01-12T03:40:25.544Z,1.60
2019-01-12T03:42:54.359Z,1.60
2019-01-12T03:45:23.204Z,1.60
2019-01-12T03:47:52.165Z,1.60
2019-01-12T03:50:21.117Z,1.60
2019-01-12T03:52:50.060Z,1.60
2019-01-12T03:55:25.545Z,1.60
2019-01-12T03:57:49.528Z,1.60
2019-01-12T04:00:20.732Z,1.70
2019-01-12T04:02:49.682Z,1.70
2019-01-12T04:05:18.587Z,1.70
2019-01-12T04:07:47.744Z,1.70
2019-01-12T04:10:16.716Z,1.70
2019-01-12T04:12:45.583Z,1.70
2019-01-12T04:15:15.007Z,1.70
2019-01-12T04:17:43.959Z,1.70
2019-01-12T04:20:15.210Z,1.70
2019-01-12T04:22:44.177Z,1.70
2019-01-12T04:25:13.458Z,1.70
2019-01-12T04:27:42.317Z,1.70
2019-01-12T04:30:16.235Z,1.70
2019-01-12T04:32:45.569Z,1.70
2019-01-12T04:35:14.565Z,1.70
2019-01-12T04:37:43.589Z,1.70
2019-01-12T04:40:15.185Z,1.80
2019-01-12T04:42:44.132Z,1.70
2019-01-12T04:45:13.515Z,1.70
2019-01-12T04:47:42.476Z,1.80
2019-01-12T04:50:14.903Z,1.80
2019-01-12T04:52:43.740Z,1.80
2019-01-12T04:55:12.981Z,1.80
2019-01-12T04:57:41.880Z,1.80
2019-01-12T05:00:16.200Z,1.80
2019-01-12T05:02:45.561Z,1.80
2019-01-12T05:05:14.875Z,1.80
2019-01-12T05:07:43.766Z,1.80
2019-01-12T05:10:12.728Z,1.80
2019-01-12T05:12:41.602Z,1.80
2019-01-12T05:15:11.831Z,1.80
2019-01-12T05:17:40.753Z,1.80
2019-01-12T05:20:12.677Z,1.80
2019-01-12T05:22:41.912Z,1.90
2019-01-12T05:25:10.856Z,1.80
2019-01-12T05:27:39.810Z,1.80
2019-01-12T05:30:10.886Z,1.90
2019-01-12T05:32:39.781Z,1.90
2019-01-12T05:35:08.744Z,1.90
2019-01-12T05:37:37.624Z,1.90
2019-01-12T05:40:07.169Z,1.80
2019-01-12T05:42:35.965Z,1.80
2019-01-12T05:45:06.068Z,1.80
2019-01-12T05:47:34.937Z,1.80
2019-01-12T05:50:04.788Z,1.90
2019-01-12T05:52:33.580Z,1.80
2019-01-12T05:55:02.548Z,1.90
2019-01-12T05:57:31.351Z,1.90
2019-01-12T06:00:00.248Z,1.90
2019-01-12T06:02:29.504Z,1.90
2019-01-12T06:04:58.405Z,1.90
2019-01-12T06:07:27.336Z,1.90
2019-01-12T06:09:56.162Z,1.90
2019-01-12T06:12:24.966Z,2.00
2019-01-12T06:14:53.784Z,1.90
2019-01-12T06:17:22.934Z,2.00
2019-01-12T06:19:51.733Z,1.90
2019-01-12T06:22:20.538Z,1.90
2019-01-12T06:24:49.350Z,1.90
2019-01-12T06:27:18.922Z,1.90
2019-01-12T06:29:47.797Z,1.90
2019-01-12T06:32:16.992Z,1.90
2019-01-12T06:34:45.875Z,1.90
2019-01-12T06:37:14.756Z,1.90
2019-01-12T06:39:43.714Z,1.90
2019-01-12T06:42:12.513Z,1.90
2019-01-12T06:44:41.308Z,2.00
2019-01-12T06:47:10.100Z,2.00
2019-01-12T06:49:38.893Z,2.00
2019-01-12T06:52:08.210Z,2.00
2019-01-12T06:54:37.301Z,2.00
2019-01-12T06:57:07.229Z,2.00
2019-01-12T06:59:36.368Z,2.00
2019-01-12T07:02:05.254Z,2.00
2019-01-12T07:04:34.152Z,2.00
2019-01-12T07:07:03.097Z,2.00
2019-01-12T07:09:32.043Z,2.00
2019-01-12T07:12:00.849Z,2.10
2019-01-12T07:14:30.096Z,2.00
2019-01-12T07:16:59.319Z,2.00
2019-01-12T07:19:28.210Z,2.00
2019-01-12T07:21:57.005Z,2.00
2019-01-12T07:24:25.896Z,2.00
2019-01-12T07:26:56.336Z,2.00
2019-01-12T07:29:25.308Z,2.00
2019-01-12T07:31:55.228Z,2.00
2019-01-12T07:34:24.495Z,2.10
2019-01-12T07:36:53.440Z,2.10
2019-01-12T07:39:22.674Z,2.00
2019-01-12T07:41:51.456Z,2.10
2019-01-12T07:44:20.528Z,2.10
2019-01-12T07:46:49.376Z,2.10
2019-01-12T07:49:18.205Z,2.10
2019-01-12T07:51:46.988Z,2.20
2019-01-12T07:54:15.835Z,2.20
2019-01-12T07:56:44.715Z,2.20
2019-01-12T07:59:13.776Z,2.20
2019-01-12T08:01:42.650Z,2.20
2019-01-12T08:04:11.898Z,2.20
2019-01-12T08:06:41.097Z,2.20
2019-01-12T08:09:10.027Z,2.20
2019-01-12T08:11:38.950Z,2.20
2019-01-12T08:14:07.804Z,2.20
2019-01-12T08:16:36.784Z,2.30
2019-01-12T08:19:05.756Z,2.30
2019-01-12T08:21:34.672Z,2.30
2019-01-12T08:24:03.645Z,2.30
2019-01-12T08:26:32.532Z,2.30
2019-01-12T08:29:01.351Z,2.30
2019-01-12T08:31:30.237Z,2.40
2019-01-12T08:33:59.030Z,2.40
2019-01-12T08:36:27.952Z,2.40
2019-01-12T08:38:57.200Z,2.50
2019-01-12T08:41:25.988Z,2.50
2019-01-12T08:43:56.392Z,2.50
2019-01-12T08:46:25.596Z,2.60
2019-01-12T08:48:54.748Z,2.60
2019-01-12T08:51:23.626Z,2.70
2019-01-12T08:53:52.512Z,2.80
2019-01-12T08:56:21.321Z,2.80
2019-01-12T08:58:50.241Z,2.80
2019-01-12T09:01:19.236Z,2.80
2019-01-12T09:03:48.158Z,2.80
2019-01-12T09:06:17.183Z,2.90
2019-01-12T09:08:45.964Z,2.80
2019-01-12T09:11:15.366Z,2.80
2019-01-12T09:13:44.852Z,2.80
2019-01-12T09:16:13.904Z,2.80
2019-01-12T09:18:43.534Z,2.80
2019-01-12T09:21:12.442Z,2.90
2019-01-12T09:23:47.173Z,3.00
2019-01-12T09:26:15.984Z,3.00
2019-01-12T09:28:44.966Z,3.00
2019-01-12T09:31:13.831Z,3.00
2019-01-12T09:33:43.023Z,3.00
2019-01-12T09:36:11.919Z,3.00
2019-01-12T09:38:40.844Z,3.10
2019-01-12T09:41:09.775Z,3.10
2019-01-12T09:43:38.655Z,3.00
2019-01-12T09:46:07.632Z,3.00
2019-01-12T09:48:36.405Z,3.10
2019-01-12T09:51:05.980Z,3.00
2019-01-12T09:53:38.789Z,3.00
2019-01-12T09:56:07.909Z,3.00
2019-01-12T09:58:37.137Z,3.10
2019-01-12T10:01:06.072Z,3.10
2019-01-12T10:03:34.883Z,3.10
2019-01-12T10:06:04.154Z,3.10
2019-01-12T10:08:32.972Z,3.20
2019-01-12T10:11:01.865Z,3.20
2019-01-12T10:13:31.294Z,3.30
2019-01-12T10:16:00.174Z,3.30
2019-01-12T10:18:29.120Z,3.40
2019-01-12T10:20:58.004Z,3.40
2019-01-12T10:23:27.164Z,3.40
2019-01-12T10:25:56.071Z,3.60
2019-01-12T10:28:24.940Z,3.60
2019-01-12T10:30:53.819Z,3.70
2019-01-12T10:33:22.690Z,3.70
2019-01-12T10:35:51.760Z,3.70
2019-01-12T10:38:20.939Z,3.70
2019-01-12T10:40:49.972Z,3.80
2019-01-12T10:43:18.818Z,3.80
2019-01-12T10:45:47.705Z,3.70
2019-01-12T10:48:16.701Z,3.80
2019-01-12T10:50:45.985Z,3.80
2019-01-12T10:53:14.942Z,3.80
2019-01-12T10:55:43.884Z,3.80
2019-01-12T10:58:12.756Z,3.80
2019-01-12T11:00:41.763Z,4.00
2019-01-12T11:03:10.625Z,4.90
2019-01-12T11:05:39.849Z,5.50
2019-01-12T11:08:08.846Z,5.80
2019-01-12T11:10:37.791Z,5.70
2019-01-12T11:13:06.711Z,5.40
2019-01-12T11:15:35.683Z,4.70
2019-01-12T11:18:05.057Z,4.30
2019-01-12T11:20:34.018Z,4.20
2019-01-12T11:23:03.005Z,4.10
2019-01-12T11:25:32.081Z,4.00
2019-01-12T11:28:01.926Z,4.00
2019-01-12T11:30:31.907Z,3.90
2019-01-12T11:33:00.754Z,3.80
2019-01-12T11:35:30.474Z,3.80
2019-01-12T11:37:59.665Z,3.80
2019-01-12T11:40:28.718Z,3.80
2019-01-12T11:42:57.685Z,3.80
2019-01-12T11:45:26.539Z,3.80
2019-01-12T11:47:55.520Z,3.80
2019-01-12T11:50:24.388Z,3.80
2019-01-12T11:52:53.528Z,3.90
2019-01-12T11:55:22.511Z,3.80
2019-01-12T11:57:51.421Z,3.80
2019-01-12T12:00:26.024Z,3.80
2019-01-12T12:02:55.057Z,3.80
2019-01-12T12:05:24.045Z,3.80
2019-01-12T12:07:53.045Z,3.80
2019-01-12T12:10:22.196Z,3.80
2019-01-12T12:12:51.289Z,3.90
2019-01-12T12:15:21.007Z,3.90
2019-01-12T12:17:50.259Z,3.90
2019-01-12T12:20:24.835Z,3.90
2019-01-12T12:22:54.021Z,4.00
2019-01-12T12:25:22.994Z,3.90
2019-01-12T12:27:51.903Z,3.90
2019-01-12T12:30:26.153Z,3.90
2019-01-12T12:32:55.425Z,3.90
2019-01-12T12:35:24.399Z,3.90
2019-01-12T12:37:53.317Z,3.90
2019-01-12T12:40:24.061Z,3.90
2019-01-12T12:42:52.984Z,4.00
2019-01-12T12:45:28.506Z,4.00
2019-01-12T12:47:57.754Z,4.00
2019-01-12T12:50:26.869Z,4.10
2019-01-12T12:52:55.818Z,4.10
2019-01-12T12:55:25.452Z,4.20
2019-01-12T12:57:54.364Z,4.20
2019-01-12T13:00:25.713Z,4.30
2019-01-12T13:02:54.687Z,4.20
2019-01-12T13:05:23.617Z,4.20
2019-01-12T13:07:52.575Z,4.20
2019-01-12T13:10:25.368Z,4.20
2019-01-12T13:12:54.681Z,4.20
2019-01-12T13:15:23.656Z,4.20
2019-01-12T13:17:52.645Z,4.30
2019-01-12T13:20:21.573Z,4.30
2019-01-12T13:22:50.831Z,4.30
2019-01-12T13:25:20.107Z,4.30
2019-01-12T13:27:49.070Z,4.30
2019-01-12T13:30:20.686Z,4.30
2019-01-12T13:32:49.657Z,4.30
2019-01-12T13:35:18.975Z,4.30
2019-01-12T13:37:48.786Z,4.30
2019-01-12T13:40:21.679Z,4.20
2019-01-12T13:42:50.806Z,4.30
2019-01-12T13:45:20.375Z,4.20
2019-01-12T13:47:49.926Z,4.20
2019-01-12T13:50:21.141Z,4.20
2019-01-12T13:52:50.123Z,4.20
2019-01-12T13:55:19.128Z,4.30
2019-01-12T13:57:48.261Z,4.20
2019-01-12T14:00:25.572Z,4.20
2019-01-12T14:02:54.820Z,4.20
2019-01-12T14:05:23.842Z,4.10
2019-01-12T14:07:56.544Z,4.10
2019-01-12T14:10:24.078Z,4.10
2019-01-12T14:12:53.067Z,4.00
2019-01-12T14:15:22.083Z,4.10
2019-01-12T14:17:51.074Z,4.10
2019-01-12T14:20:23.971Z,4.00
2019-01-12T14:22:52.981Z,4.00
2019-01-12T14:25:21.871Z,4.00
2019-01-12T14:27:54.928Z,4.00
2019-01-12T14:30:21.828Z,4.00
2019-01-12T14:32:50.965Z,4.00
2019-01-12T14:35:19.936Z,4.00
2019-01-12T14:37:49.581Z,4.00
2019-01-12T14:40:19.109Z,4.00
2019-01-12T14:42:48.367Z,3.90
2019-01-12T14:45:20.242Z,3.90
2019-01-12T14:47:49.512Z,3.90
2019-01-12T14:50:18.415Z,3.90
2019-01-12T14:52:47.391Z,3.90
2019-01-12T14:55:17.099Z,4.00
2019-01-12T14:57:46.072Z,4.00
2019-01-12T15:00:23.303Z,4.00
2019-01-12T15:02:52.532Z,4.00
2019-01-12T15:05:23.704Z,4.00
2019-01-12T15:07:52.954Z,3.90
2019-01-12T15:10:22.441Z,3.90
2019-01-12T15:12:51.395Z,3.90
2019-01-12T15:15:20.377Z,3.90
2019-01-12T15:17:49.265Z,3.90
2019-01-12T15:20:20.307Z,3.90
2019-01-12T15:22:49.235Z,3.90
2019-01-12T15:25:18.199Z,3.90
2019-01-12T15:27:47.148Z,3.80
2019-01-12T15:30:24.600Z,3.80
2019-01-12T15:32:53.545Z,3.80
2019-01-12T15:35:24.851Z,3.80
2019-01-12T15:37:54.489Z,3.80
2019-01-12T15:40:24.402Z,3.70
2019-01-12T15:42:53.347Z,3.80
2019-01-12T15:45:23.921Z,3.80
2019-01-12T15:47:52.859Z,3.70
2019-01-12T15:50:23.948Z,3.70
2019-01-12T15:52:53.405Z,3.70
2019-01-12T15:55:22.526Z,3.70
2019-01-12T15:57:51.861Z,3.70
2019-01-12T16:00:30.380Z,3.70
2019-01-12T16:02:59.738Z,3.70
2019-01-12T16:05:29.842Z,3.70
2019-01-12T16:07:58.779Z,3.70
2019-01-12T16:10:27.991Z,3.70
2019-01-12T16:12:57.222Z,3.70
2019-01-12T16:15:27.353Z,3.70
2019-01-12T16:17:57.117Z,3.70
2019-01-12T16:20:38.444Z,3.60
2019-01-12T16:23:08.027Z,3.60
2019-01-12T16:25:36.972Z,3.60
2019-01-12T16:28:05.967Z,3.60
2019-01-12T16:30:34.757Z,3.60
2019-01-12T16:33:03.730Z,3.60
2019-01-12T16:35:32.617Z,3.60
2019-01-12T16:38:01.602Z,3.60
2019-01-12T16:40:30.469Z,3.60
2019-01-12T16:42:59.365Z,3.60
2019-01-12T16:45:28.308Z,3.70
2019-01-12T16:47:57.528Z,3.70
2019-01-12T16:50:26.413Z,3.70
2019-01-12T16:52:55.299Z,3.70
2019-01-12T16:55:24.506Z,3.70
2019-01-12T16:57:53.759Z,3.70
2019-01-12T17:00:25.708Z,3.70
2019-01-12T17:02:54.970Z,3.70
2019-01-12T17:05:24.000Z,3.70
2019-01-12T17:07:52.957Z,3.70
2019-01-12T17:10:22.772Z,3.70
2019-01-12T17:12:51.805Z,3.70
2019-01-12T17:15:22.380Z,3.70
2019-01-12T17:17:51.867Z,3.70
2019-01-12T17:20:28.296Z,3.70
2019-01-12T17:23:02.328Z,3.70
2019-01-12T17:25:31.250Z,3.70
2019-01-12T17:28:00.229Z,3.70
2019-01-12T17:30:29.474Z,3.70
2019-01-12T17:32:59.278Z,3.80
2019-01-12T17:35:29.529Z,3.80
2019-01-12T17:37:58.482Z,3.80
2019-01-12T17:40:27.444Z,3.80
2019-01-12T17:42:56.596Z,3.90
2019-01-12T17:45:26.769Z,3.90
2019-01-12T17:47:55.748Z,3.80
2019-01-12T17:50:28.844Z,3.90
2019-01-12T17:52:57.770Z,3.80
2019-01-12T17:55:27.804Z,3.90
2019-01-12T17:57:56.789Z,3.80
2019-01-12T18:00:48.145Z,3.80
2019-01-12T18:03:17.094Z,3.80
2019-01-12T18:05:45.890Z,3.80
2019-01-12T18:08:15.336Z,3.70
2019-01-12T18:10:44.276Z,3.70
2019-01-12T18:13:13.224Z,3.70
2019-01-12T18:15:42.080Z,3.70
2019-01-12T18:18:11.247Z,3.70
2019-01-12T18:20:40.144Z,3.70
2019-01-12T18:23:09.537Z,3.70
2019-01-12T18:25:38.761Z,3.70
2019-01-12T18:28:07.772Z,3.70
2019-01-12T18:30:36.728Z,3.70
2019-01-12T18:33:06.363Z,3.60
2019-01-12T18:35:36.162Z,3.60
2019-01-12T18:38:05.066Z,3.60
2019-01-12T18:40:35.216Z,3.60
2019-01-12T18:43:04.117Z,3.50
2019-01-12T18:45:32.977Z,3.50
2019-01-12T18:48:01.813Z,3.50
2019-01-12T18:50:31.063Z,3.50
2019-01-12T18:53:00.021Z,3.40
2019-01-12T18:55:28.977Z,3.40
2019-01-12T18:57:58.705Z,3.40
2019-01-12T19:00:29.380Z,3.30
2019-01-12T19:02:58.414Z,3.40
2019-01-12T19:05:27.403Z,3.50
2019-01-12T19:07:56.942Z,3.40
2019-01-12T19:10:25.870Z,3.40
2019-01-12T19:12:54.985Z,3.30
2019-01-12T19:15:26.097Z,3.30
2019-01-12T19:17:55.049Z,3.30
2019-01-12T19:20:23.943Z,3.30
2019-01-12T19:22:52.915Z,3.30
2019-01-12T19:25:21.981Z,3.20
2019-01-12T19:27:51.335Z,3.20
2019-01-12T19:30:21.671Z,3.20
2019-01-12T19:32:51.086Z,3.20
2019-01-12T19:35:20.052Z,3.10
2019-01-12T19:37:48.991Z,3.10
2019-01-12T19:40:20.074Z,3.10
2019-01-12T19:42:48.965Z,3.00
2019-01-12T19:45:17.907Z,3.00
2019-01-12T19:47:47.170Z,3.00
2019-01-12T19:50:18.665Z,2.90
2019-01-12T19:52:47.827Z,2.90
2019-01-12T19:55:16.836Z,2.90
2019-01-12T19:57:45.700Z,2.90
2019-01-12T20:00:18.781Z,2.80
2019-01-12T20:02:47.900Z,2.80
2019-01-12T20:05:17.100Z,2.80
2019-01-12T20:07:46.394Z,2.80
2019-01-12T20:10:16.264Z,2.80
2019-01-12T20:12:45.209Z,2.70
2019-01-12T20:15:20.061Z,2.70
2019-01-12T20:17:48.893Z,2.70
2019-01-12T20:20:18.285Z,2.70
2019-01-12T20:22:47.250Z,2.70
2019-01-12T20:25:19.561Z,2.70
2019-01-12T20:27:48.348Z,2.70
2019-01-12T20:30:49.304Z,2.70
2019-01-12T20:33:36.298Z,2.70
2019-01-12T20:36:33.828Z,2.70
2019-01-12T20:39:20.775Z,2.70
2019-01-12T20:42:34.071Z,2.70
2019-01-12T20:45:48.189Z,2.70
2019-01-12T20:48:29.644Z,2.70
2019-01-12T20:51:21.202Z,2.70
2019-01-12T20:54:06.773Z,2.70
2019-01-12T20:57:08.324Z,2.70
2019-01-12T21:00:18.435Z,2.70
2019-01-12T21:03:32.592Z,2.70
2019-01-12T21:06:13.088Z,2.70
2019-01-12T21:09:22.712Z,2.70
2019-01-12T21:12:28.557Z,2.70
2019-01-12T21:15:06.633Z,2.70
2019-01-12T21:17:35.527Z,2.70
2019-01-12T21:20:05.879Z,2.70
2019-01-12T21:22:34.906Z,2.70
2019-01-12T21:25:04.856Z,2.70
2019-01-12T21:27:33.931Z,2.80
2019-01-12T21:30:02.881Z,2.80
2019-01-12T21:32:31.732Z,2.80
2019-01-12T21:35:00.573Z,2.80
2019-01-12T21:37:29.504Z,2.80
2019-01-12T21:39:58.330Z,2.70
2019-01-12T21:42:27.250Z,2.80
2019-01-12T21:44:56.242Z,2.80
2019-01-12T21:47:25.109Z,2.70
2019-01-12T21:49:53.913Z,2.80
2019-01-12T21:52:22.813Z,2.80
2019-01-12T21:54:51.597Z,2.80
2019-01-12T21:57:20.479Z,2.80
2019-01-12T21:59:49.322Z,2.80
2019-01-12T22:02:18.213Z,2.80
2019-01-12T22:04:47.096Z,2.80
2019-01-12T22:07:15.968Z,2.70
2019-01-12T22:09:44.891Z,2.80
2019-01-12T22:12:14.059Z,2.80
2019-01-12T22:14:43.021Z,2.80
2019-01-12T22:17:11.808Z,2.80
2019-01-12T22:19:40.980Z,2.80
2019-01-12T22:22:10.272Z,2.80
2019-01-12T22:24:39.765Z,2.80
2019-01-12T22:27:09.060Z,2.80
2019-01-12T22:29:38.163Z,2.80
2019-01-12T22:32:07.340Z,2.80
2019-01-12T22:34:36.143Z,2.80
2019-01-12T22:37:05.036Z,2.90
2019-01-12T22:39:34.182Z,2.80
2019-01-12T22:42:03.019Z,2.80
2019-01-12T22:44:32.105Z,2.80
2019-01-12T22:47:00.911Z,2.90
2019-01-12T22:49:30.295Z,2.90
2019-01-12T22:51:59.107Z,2.90
2019-01-12T22:54:27.982Z,2.90
2019-01-12T22:56:56.929Z,2.90
2019-01-12T22:59:26.052Z,3.00
2019-01-12T23:02:00.433Z,3.00
2019-01-12T23:04:30.163Z,3.00
2019-01-12T23:06:59.089Z,3.00
2019-01-12T23:09:28.034Z,3.00
2019-01-12T23:11:56.983Z,2.90
2019-01-12T23:14:45.001Z,2.90
2019-01-12T23:17:14.318Z,2.90
2019-01-12T23:19:43.197Z,2.90
2019-01-12T23:22:12.399Z,3.00
2019-01-12T23:24:41.268Z,3.00
2019-01-12T23:27:13.341Z,3.00
2019-01-12T23:29:42.641Z,3.00
2019-01-12T23:32:11.625Z,3.00
2019-01-12T23:34:40.421Z,3.00
2019-01-12T23:37:09.734Z,2.90
2019-01-12T23:39:38.584Z,3.00
2019-01-12T23:42:07.517Z,3.00
2019-01-12T23:44:36.309Z,2.90
2019-01-12T23:47:05.282Z,2.90
2019-01-12T23:49:34.081Z,3.00
2019-01-12T23:52:02.953Z,3.00
2019-01-12T23:54:31.744Z,3.00
2019-01-12T23:57:00.768Z,3.00
2019-01-12T23:59:29.715Z,3.00
